createdAt,value
2022-10-28T00:00:46.776Z,8.12
2022-10-28T00:03:13.582Z,8.14
2022-10-28T00:05:40.402Z,8.07
2022-10-28T00:08:07.168Z,8.13
2022-10-28T00:10:33.984Z,8.19
2022-10-28T00:13:00.918Z,8.11
2022-10-28T00:15:27.726Z,8.09
2022-10-28T00:17:54.596Z,7.95
2022-10-28T00:20:21.631Z,7.93
2022-10-28T00:22:48.405Z,7.84
2022-10-28T00:25:15.220Z,7.91
2022-10-28T00:27:42.033Z,7.85
2022-10-28T00:30:09.124Z,7.77
2022-10-28T00:32:35.827Z,7.77
2022-10-28T00:35:02.578Z,7.86
2022-10-28T00:37:29.269Z,7.84
2022-10-28T00:39:55.978Z,7.78
2022-10-28T00:42:22.892Z,7.75
2022-10-28T00:45:03.669Z,7.73
2022-10-28T00:47:40.006Z,7.67
2022-10-28T00:50:38.329Z,7.67
2022-10-28T00:53:14.082Z,7.60
2022-10-28T00:55:43.211Z,7.55
2022-10-28T00:58:11.235Z,7.43
2022-10-28T01:00:38.304Z,7.47
2022-10-28T01:03:05.225Z,7.43
2022-10-28T01:05:35.964Z,7.45
2022-10-28T01:08:04.753Z,7.39
2022-10-28T01:11:09.696Z,7.27
2022-10-28T01:13:55.326Z,7.36
2022-10-28T01:16:24.705Z,7.43
2022-10-28T01:19:09.064Z,7.33
2022-10-28T01:21:54.670Z,7.28
2022-10-28T01:24:30.575Z,7.30
2022-10-28T01:27:29.805Z,7.34
2022-10-28T01:29:59.635Z,7.35
2022-10-28T01:33:01.477Z,7.36
2022-10-28T01:35:53.033Z,7.34
2022-10-28T01:38:32.930Z,7.37
2022-10-28T01:41:16.164Z,7.36
2022-10-28T01:44:24.818Z,7.35
2022-10-28T01:47:17.737Z,7.51
2022-10-28T01:50:05.190Z,7.48
2022-10-28T01:52:32.948Z,7.40
2022-10-28T01:55:10.819Z,7.42
2022-10-28T01:57:41.221Z,7.39
2022-10-28T02:00:09.164Z,7.36
2022-10-28T02:02:38.070Z,7.36
2022-10-28T02:05:34.116Z,7.31
2022-10-28T02:08:10.834Z,7.23
2022-10-28T02:10:47.639Z,7.28
2022-10-28T02:13:15.449Z,7.32
2022-10-28T02:15:51.020Z,7.34
2022-10-28T02:18:56.141Z,7.34
2022-10-28T02:21:35.225Z,7.28
2022-10-28T02:24:08.045Z,7.20
2022-10-28T02:26:43.047Z,7.18
2022-10-28T02:29:27.498Z,7.19
2022-10-28T02:31:58.793Z,7.22
2022-10-28T02:34:33.745Z,7.14
2022-10-28T02:37:07.142Z,7.07
2022-10-28T02:39:40.244Z,7.04
2022-10-28T02:42:12.758Z,7.15
2022-10-28T02:44:44.746Z,7.24
2022-10-28T02:47:17.756Z,7.22
2022-10-28T02:49:48.912Z,7.15
2022-10-28T02:52:17.418Z,7.02
2022-10-28T02:54:54.339Z,7.06
2022-10-28T02:57:24.729Z,7.05
2022-10-28T02:59:57.559Z,6.97
2022-10-28T03:02:25.425Z,7.00
2022-10-28T03:04:52.589Z,6.91
2022-10-28T03:07:19.690Z,6.93
2022-10-28T03:09:46.553Z,7.02
2022-10-28T03:12:13.311Z,6.93
2022-10-28T03:14:40.054Z,6.85
2022-10-28T03:17:06.799Z,6.83
2022-10-28T03:19:33.936Z,6.87
2022-10-28T03:22:00.707Z,6.86
2022-10-28T03:24:27.640Z,6.95
2022-10-28T03:26:54.385Z,6.98
2022-10-28T03:29:21.114Z,6.96
2022-10-28T03:31:47.903Z,6.96
2022-10-28T03:34:14.680Z,6.93
2022-10-28T03:36:41.412Z,6.90
2022-10-28T03:39:08.254Z,6.88
2022-10-28T03:41:34.998Z,7.00
2022-10-28T03:44:01.808Z,7.03
2022-10-28T03:46:30.109Z,7.05
2022-10-28T03:49:03.022Z,7.13
2022-10-28T03:51:29.952Z,7.13
2022-10-28T03:53:56.661Z,7.09
2022-10-28T03:56:23.450Z,7.14
2022-10-28T03:58:50.649Z,7.25
2022-10-28T04:01:17.533Z,7.14
2022-10-28T04:03:44.289Z,7.04
2022-10-28T04:06:11.043Z,6.96
2022-10-28T04:08:38.159Z,6.98
2022-10-28T04:11:05.119Z,6.97
2022-10-28T04:13:31.894Z,6.89
2022-10-28T04:15:58.574Z,6.92
2022-10-28T04:18:25.288Z,6.87
2022-10-28T04:20:52.080Z,7.00
2022-10-28T04:23:18.969Z,7.20
2022-10-28T04:25:45.877Z,7.57
2022-10-28T04:28:17.253Z,7.68
2022-10-28T04:30:47.558Z,7.63
2022-10-28T04:33:14.509Z,7.63
2022-10-28T04:35:41.281Z,7.76
2022-10-28T04:38:07.971Z,7.70
2022-10-28T04:40:34.689Z,7.79
2022-10-28T04:43:01.554Z,7.91
2022-10-28T04:45:28.359Z,7.84
2022-10-28T04:47:59.683Z,7.87
2022-10-28T04:50:27.417Z,7.86
2022-10-28T04:52:54.378Z,7.87
2022-10-28T04:55:21.672Z,7.96
2022-10-28T04:57:56.436Z,8.00
2022-10-28T05:00:24.437Z,8.06
2022-10-28T05:02:51.231Z,8.12
2022-10-28T05:05:18.793Z,8.19
2022-10-28T05:07:46.317Z,8.17
2022-10-28T05:10:14.256Z,8.18
2022-10-28T05:12:44.261Z,8.28
2022-10-28T05:15:12.181Z,8.37
2022-10-28T05:17:44.761Z,8.45
2022-10-28T05:20:13.161Z,8.47
2022-10-28T05:22:45.868Z,8.44
2022-10-28T05:25:12.687Z,8.47
2022-10-28T05:27:39.589Z,8.61
2022-10-28T05:30:07.167Z,8.68
2022-10-28T05:32:33.888Z,8.83
2022-10-28T05:35:00.770Z,8.97
2022-10-28T05:37:27.487Z,8.81
2022-10-28T05:39:54.175Z,8.63
2022-10-28T05:42:21.173Z,8.62
2022-10-28T05:44:47.920Z,8.61
2022-10-28T05:47:14.668Z,8.68
2022-10-28T05:49:41.413Z,8.81
2022-10-28T05:52:08.133Z,8.64
2022-10-28T05:54:34.821Z,8.94
2022-10-28T05:57:01.579Z,8.99
2022-10-28T05:59:28.409Z,9.03
2022-10-28T06:01:55.117Z,8.96
2022-10-28T06:04:21.953Z,8.88
2022-10-28T06:06:48.714Z,8.91
2022-10-28T06:09:15.364Z,9.06
2022-10-28T06:11:40.658Z,9.06
2022-10-28T06:14:07.509Z,8.83
2022-10-28T06:16:34.241Z,8.89
2022-10-28T06:19:01.051Z,9.03
2022-10-28T06:21:27.815Z,9.07
2022-10-28T06:23:54.530Z,9.15
2022-10-28T06:26:21.264Z,9.17
2022-10-28T06:28:48.043Z,9.35
2022-10-28T06:31:14.786Z,9.39
2022-10-28T06:33:41.596Z,9.19
2022-10-28T06:36:08.534Z,9.29
2022-10-28T06:38:35.236Z,9.33
2022-10-28T06:41:02.458Z,9.22
2022-10-28T06:43:29.236Z,9.11
2022-10-28T06:46:00.476Z,9.10
2022-10-28T06:48:28.811Z,9.44
2022-10-28T06:50:56.273Z,9.61
2022-10-28T06:53:23.052Z,9.74
2022-10-28T06:55:57.643Z,9.89
2022-10-28T06:58:25.838Z,9.99
2022-10-28T07:00:53.155Z,10.12
2022-10-28T07:03:20.125Z,10.40
2022-10-28T07:05:48.185Z,10.34
2022-10-28T07:08:15.581Z,10.67
2022-10-28T07:10:42.492Z,10.72
2022-10-28T07:13:09.263Z,10.83
2022-10-28T07:15:35.964Z,10.72
2022-10-28T07:18:02.834Z,11.11
2022-10-28T07:20:29.601Z,11.31
2022-10-28T07:23:02.743Z,11.59
2022-10-28T07:25:30.896Z,11.89
2022-10-28T07:27:59.250Z,11.89
2022-10-28T07:30:27.622Z,11.90
2022-10-28T07:32:54.941Z,12.30
2022-10-28T07:35:21.849Z,12.57
2022-10-28T07:37:48.685Z,12.24
2022-10-28T07:40:15.562Z,12.28
2022-10-28T07:42:42.383Z,12.27
2022-10-28T07:45:10.769Z,12.16
2022-10-28T07:47:37.481Z,12.10
2022-10-28T07:50:06.251Z,12.36
2022-10-28T07:52:34.027Z,12.57
2022-10-28T07:55:00.810Z,12.57
2022-10-28T07:57:27.622Z,12.97
2022-10-28T07:59:54.448Z,13.00
2022-10-28T08:02:23.582Z,12.97
2022-10-28T08:04:50.745Z,12.98
2022-10-28T08:07:18.363Z,12.97
2022-10-28T08:09:45.198Z,13.50
2022-10-28T08:12:15.947Z,13.17
2022-10-28T08:14:42.818Z,13.41
2022-10-28T08:17:09.753Z,13.83
2022-10-28T08:19:36.515Z,14.25
2022-10-28T08:22:03.586Z,14.06
2022-10-28T08:24:30.407Z,14.03
2022-10-28T08:26:57.194Z,13.43
2022-10-28T08:29:27.717Z,12.98
2022-10-28T08:31:56.900Z,12.84
2022-10-28T08:34:23.669Z,13.03
2022-10-28T08:36:50.470Z,13.19
2022-10-28T08:39:17.286Z,13.31
2022-10-28T08:41:52.006Z,13.76
2022-10-28T08:44:27.367Z,13.69
2022-10-28T08:47:21.508Z,13.85
2022-10-28T08:49:54.209Z,13.34
2022-10-28T08:53:01.758Z,13.23
2022-10-28T08:55:34.225Z,13.34
2022-10-28T08:58:24.004Z,13.72
2022-10-28T09:00:56.222Z,13.77
2022-10-28T09:03:26.692Z,13.90
2022-10-28T09:06:01.554Z,14.01
2022-10-28T09:08:30.781Z,14.55
2022-10-28T09:11:36.411Z,14.79
2022-10-28T09:14:45.809Z,15.60
2022-10-28T09:17:18.665Z,16.06
2022-10-28T09:20:00.269Z,15.23
2022-10-28T09:22:47.232Z,14.54
2022-10-28T09:25:13.975Z,14.44
2022-10-28T09:27:48.447Z,14.45
2022-10-28T09:30:26.863Z,14.36
2022-10-28T09:33:31.025Z,14.57
2022-10-28T09:35:58.681Z,14.30
2022-10-28T09:38:30.466Z,14.52
2022-10-28T09:41:06.763Z,14.77
2022-10-28T09:43:36.142Z,14.31
2022-10-28T09:46:11.188Z,14.39
2022-10-28T09:48:41.948Z,14.66
2022-10-28T09:51:24.760Z,14.86
2022-10-28T09:53:57.527Z,14.97
2022-10-28T09:56:26.068Z,14.50
2022-10-28T09:58:58.124Z,14.80
2022-10-28T10:01:33.910Z,14.62
2022-10-28T10:04:01.399Z,14.71
2022-10-28T10:06:39.820Z,14.80
2022-10-28T10:09:12.075Z,14.88
2022-10-28T10:11:46.500Z,14.86
2022-10-28T10:14:21.152Z,14.58
2022-10-28T10:17:03.001Z,14.87
2022-10-28T10:19:58.645Z,15.61
2022-10-28T10:22:31.375Z,15.21
2022-10-28T10:24:58.316Z,15.14
2022-10-28T10:27:26.987Z,15.31
2022-10-28T10:29:55.522Z,15.34
2022-10-28T10:32:34.565Z,15.07
2022-10-28T10:35:28.019Z,15.02
2022-10-28T10:37:58.102Z,15.56
2022-10-28T10:40:26.619Z,15.63
2022-10-28T10:43:10.035Z,15.89
2022-10-28T10:45:40.712Z,16.20
2022-10-28T10:48:13.030Z,15.48
2022-10-28T10:50:40.586Z,15.43
2022-10-28T10:53:17.047Z,15.40
2022-10-28T10:55:50.713Z,15.15
2022-10-28T10:58:23.700Z,15.30
2022-10-28T11:00:54.042Z,15.10
2022-10-28T11:04:00.286Z,15.31
2022-10-28T11:06:32.439Z,15.57
2022-10-28T11:09:02.771Z,15.41
2022-10-28T11:11:39.911Z,15.98
2022-10-28T11:14:31.557Z,16.16
2022-10-28T11:17:00.513Z,16.11
2022-10-28T11:19:37.922Z,15.56
2022-10-28T11:22:13.348Z,15.19
2022-10-28T11:25:08.068Z,15.60
2022-10-28T11:27:57.613Z,15.85
2022-10-28T11:30:55.975Z,15.78
2022-10-28T11:33:48.211Z,15.69
2022-10-28T11:36:33.686Z,15.64
2022-10-28T11:39:06.500Z,15.56
2022-10-28T11:41:39.030Z,15.58
2022-10-28T11:44:19.029Z,15.68
2022-10-28T11:47:02.423Z,15.85
2022-10-28T11:49:50.077Z,15.70
2022-10-28T11:52:25.879Z,15.61
2022-10-28T11:54:55.528Z,15.61
2022-10-28T11:57:57.012Z,15.40
2022-10-28T12:00:44.452Z,15.72
2022-10-28T12:03:55.316Z,15.75
2022-10-28T12:06:55.835Z,15.84
2022-10-28T12:09:28.821Z,15.78
2022-10-28T12:11:58.093Z,15.79
2022-10-28T12:14:36.875Z,15.72
2022-10-28T12:17:31.498Z,15.44
2022-10-28T12:20:17.088Z,15.76
2022-10-28T12:22:51.641Z,15.77
2022-10-28T12:25:24.727Z,15.78
2022-10-28T12:27:55.688Z,15.82
2022-10-28T12:30:27.831Z,15.81
2022-10-28T12:33:00.439Z,15.76
2022-10-28T12:35:40.024Z,15.60
2022-10-28T12:38:11.289Z,15.32
2022-10-28T12:40:50.754Z,15.32
2022-10-28T12:43:30.049Z,15.18
2022-10-28T12:45:57.838Z,15.43
2022-10-28T12:48:29.863Z,15.40
2022-10-28T12:51:04.262Z,15.57
2022-10-28T12:53:44.185Z,15.40
2022-10-28T12:56:40.488Z,15.32
2022-10-28T12:59:17.417Z,15.07
2022-10-28T13:01:47.516Z,15.12
2022-10-28T13:04:14.769Z,15.36
2022-10-28T13:06:53.286Z,15.36
2022-10-28T13:09:25.894Z,15.17
2022-10-28T13:12:40.237Z,14.98
2022-10-28T13:15:12.471Z,14.87
2022-10-28T13:18:01.139Z,14.74
2022-10-28T13:20:42.942Z,14.71
2022-10-28T13:23:24.296Z,14.66
2022-10-28T13:26:15.901Z,14.83
2022-10-28T13:28:48.995Z,14.81
2022-10-28T13:31:16.382Z,14.75
2022-10-28T13:34:01.508Z,14.69
2022-10-28T13:36:34.557Z,14.68
2022-10-28T13:39:04.329Z,14.56
2022-10-28T13:41:39.115Z,14.42
2022-10-28T13:44:09.575Z,14.35
2022-10-28T13:47:24.607Z,14.35
2022-10-28T13:50:06.525Z,14.49
2022-10-28T13:52:36.715Z,14.35
2022-10-28T13:55:25.459Z,14.27
2022-10-28T13:58:00.306Z,14.16
2022-10-28T14:03:01.823Z,13.96
2022-10-28T14:05:37.958Z,13.92
2022-10-28T14:08:19.555Z,13.92
2022-10-28T14:11:03.351Z,13.82
2022-10-28T14:14:01.855Z,13.78
2022-10-28T14:16:44.919Z,13.72
2022-10-28T14:19:11.646Z,13.61
2022-10-28T14:21:47.930Z,13.54
2022-10-28T14:24:32.241Z,13.46
2022-10-28T14:27:07.788Z,13.34
2022-10-28T14:29:48.746Z,13.21
2022-10-28T14:32:33.916Z,13.14
2022-10-28T14:35:12.766Z,13.04
2022-10-28T14:37:48.724Z,13.00
2022-10-28T14:40:35.227Z,13.00
2022-10-28T14:43:10.960Z,13.01
2022-10-28T14:45:57.761Z,13.22
2022-10-28T14:48:40.591Z,13.41
2022-10-28T14:51:13.776Z,13.42
2022-10-28T14:53:43.516Z,13.11
2022-10-28T14:56:20.487Z,13.25
2022-10-28T14:58:47.723Z,13.51
2022-10-28T15:01:17.741Z,13.59
2022-10-28T15:03:51.074Z,13.68
2022-10-28T15:06:26.664Z,13.70
2022-10-28T15:08:54.959Z,13.66
2022-10-28T15:11:22.461Z,13.54
2022-10-28T15:13:53.579Z,13.57
2022-10-28T15:16:22.638Z,13.41
2022-10-28T15:18:52.581Z,12.96
2022-10-28T15:21:22.277Z,13.03
2022-10-28T15:24:01.994Z,13.18
2022-10-28T15:26:28.856Z,13.21
2022-10-28T15:28:55.717Z,13.08
2022-10-28T15:31:22.641Z,13.03
2022-10-28T15:33:49.444Z,12.91
2022-10-28T15:36:22.290Z,12.82
2022-10-28T15:38:50.745Z,12.77
2022-10-28T15:41:23.640Z,12.77
2022-10-28T15:43:59.695Z,12.66
2022-10-28T15:46:27.268Z,12.41
2022-10-28T15:48:56.388Z,12.18
2022-10-28T15:51:23.675Z,11.97
2022-10-28T15:54:19.215Z,11.93
2022-10-28T15:56:57.573Z,12.07
2022-10-28T15:59:25.802Z,12.11
2022-10-28T16:01:53.120Z,12.14
2022-10-28T16:04:22.731Z,12.01
2022-10-28T16:06:55.749Z,11.79
2022-10-28T16:09:33.348Z,11.88
2022-10-28T16:12:14.328Z,11.78
2022-10-28T16:14:43.851Z,11.64
2022-10-28T16:17:23.424Z,11.60
2022-10-28T16:20:01.399Z,11.55
2022-10-28T16:22:30.222Z,11.59
2022-10-28T16:24:57.237Z,11.58
2022-10-28T16:27:26.788Z,11.41
2022-10-28T16:29:53.924Z,11.33
2022-10-28T16:32:28.179Z,11.23
2022-10-28T16:34:56.501Z,11.12
2022-10-28T16:37:28.379Z,11.11
2022-10-28T16:39:55.476Z,11.09
2022-10-28T16:42:22.979Z,11.05
2022-10-28T16:44:50.421Z,10.85
2022-10-28T16:47:19.934Z,10.73
2022-10-28T16:49:48.239Z,10.64
2022-10-28T16:52:19.332Z,10.71
2022-10-28T16:54:47.108Z,10.66
2022-10-28T16:57:14.072Z,10.61
2022-10-28T16:59:40.900Z,10.64
2022-10-28T17:02:20.043Z,10.57
2022-10-28T17:04:46.880Z,10.60
2022-10-28T17:07:13.674Z,10.58
2022-10-28T17:09:40.870Z,10.49
2022-10-28T17:12:12.215Z,10.35
2022-10-28T17:14:38.959Z,10.34
2022-10-28T17:17:05.649Z,10.36
2022-10-28T17:19:32.428Z,10.23
2022-10-28T17:21:59.119Z,10.24
2022-10-28T17:24:25.854Z,10.05
2022-10-28T17:26:52.812Z,10.12
2022-10-28T17:29:19.564Z,10.04
2022-10-28T17:31:46.310Z,9.96
2022-10-28T17:34:13.131Z,9.93
2022-10-28T17:36:39.817Z,9.90
2022-10-28T17:39:06.729Z,9.99
2022-10-28T17:41:33.473Z,9.84
2022-10-28T17:44:00.221Z,9.78
2022-10-28T17:46:28.497Z,9.81
2022-10-28T17:48:55.290Z,9.89
2022-10-28T17:51:22.185Z,9.86
2022-10-28T17:53:55.835Z,9.84
2022-10-28T17:56:22.627Z,9.90
2022-10-28T17:58:52.647Z,10.03
2022-10-28T18:01:19.642Z,9.93
2022-10-28T18:03:53.515Z,9.91
2022-10-28T18:06:20.314Z,9.82
2022-10-28T18:08:47.149Z,9.80
2022-10-28T18:11:15.936Z,9.90
2022-10-28T18:13:46.490Z,9.85
2022-10-28T18:16:19.901Z,9.73
2022-10-28T18:18:47.012Z,9.74
2022-10-28T18:21:16.725Z,9.66
2022-10-28T18:23:43.802Z,9.62
2022-10-28T18:26:13.560Z,9.67
2022-10-28T18:28:41.726Z,9.76
2022-10-28T18:31:14.787Z,9.66
2022-10-28T18:33:42.669Z,9.64
2022-10-28T18:36:16.669Z,9.55
2022-10-28T18:38:43.748Z,9.51
2022-10-28T18:41:15.932Z,9.53
2022-10-28T18:43:43.341Z,9.44
2022-10-28T18:46:10.799Z,9.45
2022-10-28T18:48:37.908Z,9.37
2022-10-28T18:51:07.517Z,9.40
2022-10-28T18:53:41.979Z,9.38
2022-10-28T18:56:12.728Z,9.34
2022-10-28T18:58:39.789Z,9.36
2022-10-28T19:01:11.537Z,9.42
2022-10-28T19:03:39.164Z,9.43
2022-10-28T19:06:12.213Z,9.41
2022-10-28T19:08:39.833Z,9.36
2022-10-28T19:11:07.780Z,9.35
2022-10-28T19:13:36.282Z,9.43
2022-10-28T19:16:04.058Z,9.52
2022-10-28T19:18:31.133Z,9.41
2022-10-28T19:21:27.988Z,9.60
2022-10-28T19:23:55.082Z,9.49
2022-10-28T19:26:22.596Z,9.34
2022-10-28T19:28:50.571Z,9.41
2022-10-28T19:31:20.228Z,9.34
2022-10-28T19:33:47.376Z,9.54
2022-10-28T19:36:21.480Z,9.46
2022-10-28T19:38:49.568Z,9.30
2022-10-28T19:41:18.815Z,9.14
2022-10-28T19:43:46.154Z,9.08
2022-10-28T19:46:18.078Z,9.01
2022-10-28T19:48:47.524Z,9.00
2022-10-28T19:51:16.486Z,9.02
2022-10-28T19:53:50.822Z,9.03
2022-10-28T19:56:18.206Z,9.04
2022-10-28T19:58:46.422Z,9.04
2022-10-28T20:01:14.345Z,9.04
2022-10-28T20:03:45.085Z,8.93
2022-10-28T20:06:15.383Z,8.85
2022-10-28T20:08:44.138Z,8.81
2022-10-28T20:11:14.177Z,8.71
2022-10-28T20:13:41.409Z,8.64
2022-10-28T20:16:11.518Z,8.63
2022-10-28T20:18:38.989Z,8.61
2022-10-28T20:21:15.843Z,8.59
2022-10-28T20:23:44.192Z,8.53
2022-10-28T20:26:12.686Z,8.52
2022-10-28T20:28:40.176Z,8.52
2022-10-28T20:31:11.236Z,8.35
2022-10-28T20:33:40.320Z,8.29
2022-10-28T20:36:21.054Z,8.33
2022-10-28T20:38:48.050Z,8.25
2022-10-28T20:41:14.853Z,8.19
2022-10-28T20:43:41.731Z,8.21
2022-10-28T20:46:09.280Z,8.18
2022-10-28T20:48:36.066Z,8.12
2022-10-28T20:51:03.307Z,8.19
2022-10-28T20:53:37.576Z,8.23
2022-10-28T20:56:04.923Z,8.20
2022-10-28T20:58:33.800Z,8.15
2022-10-28T21:01:08.919Z,7.94
2022-10-28T21:03:35.681Z,7.77
2022-10-28T21:06:02.755Z,7.90
2022-10-28T21:08:29.983Z,7.97
2022-10-28T21:10:56.754Z,8.14
2022-10-28T21:13:23.558Z,8.17
2022-10-28T21:15:56.336Z,8.21
2022-10-28T21:18:24.996Z,8.16
2022-10-28T21:20:58.804Z,8.16
2022-10-28T21:23:26.888Z,8.41
2022-10-28T21:25:59.172Z,8.33
2022-10-28T21:28:26.764Z,8.36
2022-10-28T21:31:09.848Z,8.17
2022-10-28T21:33:38.057Z,8.04
2022-10-28T21:36:08.916Z,8.11
2022-10-28T21:38:36.321Z,7.89
2022-10-28T21:41:15.017Z,7.73
2022-10-28T21:43:43.972Z,7.71
2022-10-28T21:46:11.598Z,7.66
2022-10-28T21:48:38.531Z,7.64
2022-10-28T21:51:11.640Z,7.89
2022-10-28T21:53:43.331Z,7.89
2022-10-28T21:56:17.624Z,7.81
2022-10-28T21:58:46.668Z,7.83
2022-10-28T22:01:16.921Z,7.89
2022-10-28T22:03:43.811Z,7.81
2022-10-28T22:06:11.105Z,7.80
2022-10-28T22:08:38.071Z,7.84
2022-10-28T22:11:11.646Z,7.79
2022-10-28T22:13:38.575Z,7.75
2022-10-28T22:16:11.102Z,7.76
2022-10-28T22:18:39.159Z,7.67
2022-10-28T22:21:08.235Z,7.68
2022-10-28T22:23:35.289Z,7.58
2022-10-28T22:26:03.301Z,7.54
2022-10-28T22:28:30.873Z,7.66
2022-10-28T22:31:03.099Z,7.58
2022-10-28T22:33:30.073Z,7.58
2022-10-28T22:36:02.333Z,7.43
2022-10-28T22:38:29.336Z,7.47
2022-10-28T22:41:12.566Z,7.53
2022-10-28T22:43:40.705Z,7.54
2022-10-28T22:46:07.677Z,7.47
2022-10-28T22:48:34.635Z,7.44
2022-10-28T22:51:01.670Z,7.35
2022-10-28T22:53:28.650Z,7.32
2022-10-28T22:55:56.553Z,7.24
2022-10-28T22:58:25.164Z,7.19
2022-10-28T23:00:51.950Z,7.05
2022-10-28T23:03:18.786Z,6.89
2022-10-28T23:05:45.711Z,6.72
2022-10-28T23:08:15.837Z,6.73
2022-10-28T23:10:42.774Z,6.87
2022-10-28T23:13:13.214Z,7.04
2022-10-28T23:15:39.983Z,7.09
2022-10-28T23:18:06.832Z,6.96
2022-10-28T23:20:35.608Z,6.69
2022-10-28T23:23:02.308Z,6.70
2022-10-28T23:25:29.270Z,6.56
2022-10-28T23:27:57.072Z,6.48
2022-10-28T23:30:24.174Z,6.41
2022-10-28T23:32:50.988Z,6.40
2022-10-28T23:35:17.932Z,6.51
2022-10-28T23:37:44.719Z,6.53
2022-10-28T23:40:11.864Z,6.43
2022-10-28T23:42:38.776Z,6.46
2022-10-28T23:45:06.265Z,6.54
2022-10-28T23:47:33.108Z,6.59
2022-10-28T23:49:59.865Z,6.77
2022-10-28T23:52:26.692Z,6.78
2022-10-28T23:54:53.420Z,6.88
2022-10-28T23:57:20.282Z,6.98
2022-10-28T23:59:47.043Z,6.87
